Time;durP1;ratioP1;P1;durP2;ratioP2;P2;SDS_P1;SDS_P2;PMS_P1;PMS_P2;Temp;Humidity;BMP_temperature;BMP_pressure;BME280_temperature;BME280_humidity;BME280_pressure;Samples;Min_cycle;Max_cycle;Signal;HPM_P1;HPM_P2
2022/12/08 00:02:20;;;;;;;3.90;1.60;;;;;;;;;;5065378;28;20131;-75
2022/12/08 00:10:15;;;;;;;10.15;1.92;;;;;;;;;;5067686;28;20139;-75
2022/12/08 00:12:41;;;;;;;5.30;1.85;;;;;;;;;;5064868;28;20123;-75
2022/12/08 00:15:07;;;;;;;5.70;1.60;;;;;;;;;;5064558;28;20115;-75
2022/12/08 00:17:33;;;;;;;6.10;1.98;;;;;;;;;;5068257;28;20041;-75
2022/12/08 00:19:59;;;;;;;4.50;1.85;;;;;;;;;;5068493;28;20048;-75
2022/12/08 00:22:25;;;;;;;7.32;1.80;;;;;;;;;;5065007;28;21245;-75
2022/12/08 00:24:51;;;;;;;4.40;1.90;;;;;;;;;;5070645;28;20041;-75
2022/12/08 00:27:20;;;;;;;5.10;1.48;;;;;;;;;;5065123;28;20570;-75
2022/12/08 00:29:46;;;;;;;5.55;1.92;;;;;;;;;;5063629;28;20051;-75
2022/12/08 00:32:12;;;;;;;6.68;2.03;;;;;;;;;;5065671;28;20057;-76
2022/12/08 00:34:38;;;;;;;6.82;1.90;;;;;;;;;;5066556;28;20117;-75
2022/12/08 00:37:05;;;;;;;5.13;1.70;;;;;;;;;;5068719;28;20040;-75
2022/12/08 00:39:31;;;;;;;7.30;2.08;;;;;;;;;;5068665;28;20045;-75
2022/12/08 00:42:12;;;;;;;7.55;2.00;;;;;;;;;;5067294;28;20044;-75
2022/12/08 00:44:38;;;;;;;5.78;1.98;;;;;;;;;;5065891;28;20106;-75
2022/12/08 00:47:05;;;;;;;3.67;1.90;;;;;;;;;;5067884;28;20076;-75
2022/12/08 00:49:31;;;;;;;5.10;1.60;;;;;;;;;;5066712;28;20076;-75
2022/12/08 00:51:59;;;;;;;4.82;1.50;;;;;;;;;;5069469;28;20037;-75
2022/12/08 00:54:25;;;;;;;3.85;2.00;;;;;;;;;;5065638;28;20052;-75
2022/12/08 00:56:52;;;;;;;5.43;1.48;;;;;;;;;;5069022;28;20159;-75
2022/12/08 00:59:18;;;;;;;2.15;1.40;;;;;;;;;;5066813;28;20047;-75
2022/12/08 01:01:44;;;;;;;4.60;1.48;;;;;;;;;;5063556;28;20475;-75
2022/12/08 01:04:14;;;;;;;3.47;1.40;;;;;;;;;;5065416;28;20072;-75
2022/12/08 01:06:40;;;;;;;4.80;1.35;;;;;;;;;;5066168;28;20181;-74
2022/12/08 01:09:07;;;;;;;3.08;1.40;;;;;;;;;;5062269;28;20479;-74
2022/12/08 01:11:36;;;;;;;1.88;1.27;;;;;;;;;;5067898;28;20048;-75
2022/12/08 01:14:06;;;;;;;5.35;1.40;;;;;;;;;;5067503;28;20033;-75
2022/12/08 01:16:33;;;;;;;1.95;1.40;;;;;;;;;;5062759;28;20045;-75
2022/12/08 01:18:59;;;;;;;3.03;1.50;;;;;;;;;;5071733;28;20513;-75
2022/12/08 01:21:26;;;;;;;1.48;1.38;;;;;;;;;;5072390;28;20044;-75
2022/12/08 01:23:52;;;;;;;2.63;1.60;;;;;;;;;;5071171;28;20169;-75
2022/12/08 01:26:19;;;;;;;1.40;1.30;;;;;;;;;;5067378;28;20526;-75
2022/12/08 01:28:45;;;;;;;1.42;1.33;;;;;;;;;;5066799;28;20041;-75
2022/12/08 01:31:13;;;;;;;2.67;1.70;;;;;;;;;;5055396;28;20078;-75
2022/12/08 01:33:39;;;;;;;1.27;1.20;;;;;;;;;;5070899;28;20044;-75
2022/12/08 01:36:05;;;;;;;1.90;1.30;;;;;;;;;;5067198;28;20040;-75
2022/12/08 01:38:31;;;;;;;2.45;1.40;;;;;;;;;;5068534;28;20037;-75
2022/12/08 01:40:57;;;;;;;2.10;1.30;;;;;;;;;;5072924;28;20048;-75
2022/12/08 01:43:23;;;;;;;1.63;1.30;;;;;;;;;;5070798;28;20101;-75
2022/12/08 01:45:49;;;;;;;2.53;1.60;;;;;;;;;;5063992;28;20040;-75
2022/12/08 01:48:26;;;;;;;2.25;1.30;;;;;;;;;;5064642;28;20049;-75
2022/12/08 01:50:53;;;;;;;1.98;1.40;;;;;;;;;;5071741;28;20036;-75
2022/12/08 01:53:23;;;;;;;4.72;1.67;;;;;;;;;;5070324;28;20484;-75
2022/12/08 01:55:51;;;;;;;1.38;1.30;;;;;;;;;;5071318;28;20041;-75
2022/12/08 01:58:19;;;;;;;3.72;1.30;;;;;;;;;;5068993;28;20033;-75
2022/12/08 02:00:45;;;;;;;1.35;1.25;;;;;;;;;;5070263;28;20033;-75
2022/12/08 02:03:14;;;;;;;1.45;1.30;;;;;;;;;;5071035;28;20557;-75
2022/12/08 02:05:40;;;;;;;3.70;1.33;;;;;;;;;;5066118;28;20082;-75
2022/12/08 02:08:08;;;;;;;2.75;1.40;;;;;;;;;;5069217;28;20097;-75
2022/12/08 02:10:36;;;;;;;1.50;1.40;;;;;;;;;;5069348;28;20400;-75
2022/12/08 02:13:03;;;;;;;6.95;1.70;;;;;;;;;;5071165;28;20076;-75
2022/12/08 02:15:32;;;;;;;4.05;1.60;;;;;;;;;;5068230;28;20056;-75
2022/12/08 02:18:27;;;;;;;4.45;2.33;;;;;;;;;;5071082;28;20476;-75
2022/12/08 02:21:15;;;;;;;6.60;2.17;;;;;;;;;;5004361;28;20477;-75
2022/12/08 02:23:47;;;;;;;1.85;1.40;;;;;;;;;;5067252;28;20094;-75
2022/12/08 02:26:26;;;;;;;3.85;1.90;;;;;;;;;;5068327;28;20051;-75
2022/12/08 02:29:01;;;;;;;6.43;2.53;;;;;;;;;;5063649;28;20040;-75
2022/12/08 02:31:26;;;;;;;7.82;1.90;;;;;;;;;;5070575;28;20041;-75
2022/12/08 02:34:05;;;;;;;6.72;1.55;;;;;;;;;;5065472;28;20107;-75
2022/12/08 02:36:37;;;;;;;7.80;1.42;;;;;;;;;;5066728;28;20037;-75
2022/12/08 02:39:13;;;;;;;2.50;1.65;;;;;;;;;;5070820;28;20049;-75
2022/12/08 02:41:45;;;;;;;1.73;1.30;;;;;;;;;;5064386;28;20036;-75
2022/12/08 02:44:15;;;;;;;4.93;1.40;;;;;;;;;;5070536;28;20044;-75
2022/12/08 02:46:47;;;;;;;3.22;1.50;;;;;;;;;;5064199;28;20032;-75
2022/12/08 02:49:14;;;;;;;4.80;1.95;;;;;;;;;;5068095;28;20411;-75
2022/12/08 02:51:40;;;;;;;1.48;1.38;;;;;;;;;;5069796;28;20037;-75
2022/12/08 02:54:06;;;;;;;1.55;1.40;;;;;;;;;;5068480;28;20091;-75
2022/12/08 02:56:38;;;;;;;1.85;1.30;;;;;;;;;;5068528;28;20041;-75
2022/12/08 02:59:11;;;;;;;2.78;1.40;;;;;;;;;;5063999;28;20055;-75
2022/12/08 03:01:40;;;;;;;1.63;1.40;;;;;;;;;;5068078;28;20072;-75
2022/12/08 03:04:09;;;;;;;2.97;1.60;;;;;;;;;;5069906;28;20083;-75
2022/12/08 03:06:45;;;;;;;1.90;1.42;;;;;;;;;;5067977;28;20044;-75
2022/12/08 03:09:29;;;;;;;1.95;1.75;;;;;;;;;;5068708;28;20048;-75
2022/12/08 03:12:01;;;;;;;4.05;1.30;;;;;;;;;;5061058;28;20048;-75
2022/12/08 03:14:27;;;;;;;2.38;1.40;;;;;;;;;;5062573;28;20571;-75
2022/12/08 03:16:55;;;;;;;1.40;1.30;;;;;;;;;;5067746;28;20086;-75
2022/12/08 03:19:23;;;;;;;3.67;1.50;;;;;;;;;;5070000;28;20052;-75
2022/12/08 03:21:50;;;;;;;4.30;1.27;;;;;;;;;;5068450;28;20414;-75
2022/12/08 03:24:17;;;;;;;2.30;1.25;;;;;;;;;;5067184;28;20052;-75
2022/12/08 03:26:46;;;;;;;2.55;1.20;;;;;;;;;;5068828;28;20051;-75
2022/12/08 03:29:12;;;;;;;6.00;1.55;;;;;;;;;;5062409;28;20562;-75
2022/12/08 03:31:44;;;;;;;3.30;1.35;;;;;;;;;;5064801;28;20059;-75
2022/12/08 03:34:17;;;;;;;5.57;1.40;;;;;;;;;;5063723;28;20060;-75
2022/12/08 03:36:44;;;;;;;4.03;1.42;;;;;;;;;;5073102;28;20384;-75
2022/12/08 03:39:10;;;;;;;2.97;1.40;;;;;;;;;;5069298;28;20045;-75
2022/12/08 03:41:36;;;;;;;1.33;1.23;;;;;;;;;;5068013;28;20045;-75
2022/12/08 03:44:03;;;;;;;2.00;1.33;;;;;;;;;;5069277;28;20091;-75
2022/12/08 03:46:29;;;;;;;5.68;1.35;;;;;;;;;;5064347;28;20056;-75
2022/12/08 03:48:55;;;;;;;2.80;1.30;;;;;;;;;;5070252;28;20040;-75
2022/12/08 03:51:22;;;;;;;1.70;1.20;;;;;;;;;;5063996;28;20549;-75
2022/12/08 03:53:48;;;;;;;4.57;1.63;;;;;;;;;;5068699;28;20546;-75
2022/12/08 03:56:16;;;;;;;2.50;1.35;;;;;;;;;;5066022;28;20043;-75
2022/12/08 03:58:42;;;;;;;3.85;1.60;;;;;;;;;;5067942;28;20404;-75
2022/12/08 04:01:09;;;;;;;1.42;1.30;;;;;;;;;;5064740;28;20033;-75
2022/12/08 04:03:41;;;;;;;3.75;1.60;;;;;;;;;;5065416;28;20499;-75
2022/12/08 04:06:07;;;;;;;4.72;1.38;;;;;;;;;;5065646;28;20049;-74
2022/12/08 04:08:33;;;;;;;4.78;1.50;;;;;;;;;;5070038;28;20494;-75
2022/12/08 04:10:59;;;;;;;1.95;1.10;;;;;;;;;;5066050;28;20546;-75
2022/12/08 04:13:25;;;;;;;3.17;1.40;;;;;;;;;;5067483;28;20554;-75
2022/12/08 04:15:51;;;;;;;2.40;1.40;;;;;;;;;;5065124;28;20045;-75
2022/12/08 04:18:17;;;;;;;3.13;1.55;;;;;;;;;;5067744;28;20052;-75
2022/12/08 04:20:44;;;;;;;1.42;1.17;;;;;;;;;;5067429;28;20086;-75
2022/12/08 04:23:11;;;;;;;1.20;1.20;;;;;;;;;;5064733;28;20399;-75
2022/12/08 04:25:37;;;;;;;2.78;1.35;;;;;;;;;;5070041;28;20046;-75
2022/12/08 04:28:03;;;;;;;1.58;1.23;;;;;;;;;;5066684;28;20094;-75
2022/12/08 04:30:29;;;;;;;3.35;1.40;;;;;;;;;;5063466;28;20488;-75
2022/12/08 04:32:55;;;;;;;1.33;1.23;;;;;;;;;;5067308;28;20469;-75
2022/12/08 04:35:21;;;;;;;3.60;1.40;;;;;;;;;;5067656;28;20053;-75
2022/12/08 04:37:47;;;;;;;3.20;1.30;;;;;;;;;;5067725;28;20051;-75
2022/12/08 04:40:14;;;;;;;2.47;1.55;;;;;;;;;;5060808;28;20171;-75
2022/12/08 04:42:40;;;;;;;2.25;1.30;;;;;;;;;;5065946;28;20052;-75
2022/12/08 04:45:06;;;;;;;1.90;1.30;;;;;;;;;;5066494;28;20111;-75
2022/12/08 04:47:32;;;;;;;3.28;1.30;;;;;;;;;;5064312;28;20123;-75
2022/12/08 04:49:58;;;;;;;2.55;1.30;;;;;;;;;;5066296;28;20059;-75
2022/12/08 04:52:24;;;;;;;4.32;1.45;;;;;;;;;;5065486;28;20531;-74
2022/12/08 04:54:50;;;;;;;3.58;1.50;;;;;;;;;;5064558;28;20475;-75
2022/12/08 04:57:16;;;;;;;3.50;1.40;;;;;;;;;;5061728;28;20060;-75
2022/12/08 04:59:42;;;;;;;2.50;1.30;;;;;;;;;;5068357;28;20049;-75
2022/12/08 05:02:08;;;;;;;1.40;1.20;;;;;;;;;;5061945;28;20048;-75
2022/12/08 05:04:34;;;;;;;2.20;1.40;;;;;;;;;;5067075;28;20393;-75
2022/12/08 05:07:00;;;;;;;2.78;1.60;;;;;;;;;;5065688;28;20044;-75
2022/12/08 05:09:27;;;;;;;4.32;1.40;;;;;;;;;;5066967;28;20052;-75
2022/12/08 05:11:53;;;;;;;3.20;1.85;;;;;;;;;;5063441;28;20036;-75
2022/12/08 05:14:19;;;;;;;6.93;1.70;;;;;;;;;;5063710;28;20480;-75
2022/12/08 05:16:46;;;;;;;4.10;1.83;;;;;;;;;;5064807;28;20059;-75
2022/12/08 05:19:12;;;;;;;5.47;1.75;;;;;;;;;;5067219;28;20509;-75
2022/12/08 05:21:38;;;;;;;4.28;1.77;;;;;;;;;;5066845;28;20041;-75
2022/12/08 05:24:04;;;;;;;4.05;1.88;;;;;;;;;;5067650;28;20044;-75
2022/12/08 05:26:30;;;;;;;5.95;1.70;;;;;;;;;;5065634;28;20111;-75
2022/12/08 05:28:56;;;;;;;2.92;1.40;;;;;;;;;;5067667;28;20552;-75
2022/12/08 05:31:22;;;;;;;6.00;1.65;;;;;;;;;;5062062;28;20446;-75
2022/12/08 05:33:49;;;;;;;5.78;1.60;;;;;;;;;;5066014;28;20049;-74
2022/12/08 05:36:15;;;;;;;4.53;1.75;;;;;;;;;;5061948;28;20049;-74
2022/12/08 05:38:41;;;;;;;6.78;1.75;;;;;;;;;;5067485;28;20032;-75
2022/12/08 05:41:08;;;;;;;5.25;1.60;;;;;;;;;;5068168;28;20435;-75
2022/12/08 05:43:34;;;;;;;2.08;1.40;;;;;;;;;;5065506;28;20045;-75
2022/12/08 05:46:00;;;;;;;5.40;1.80;;;;;;;;;;5058183;28;20040;-75
2022/12/08 05:48:27;;;;;;;5.35;1.70;;;;;;;;;;5064002;28;20041;-75
2022/12/08 05:50:53;;;;;;;5.07;1.67;;;;;;;;;;5066432;28;20044;-74
2022/12/08 05:53:19;;;;;;;7.68;1.80;;;;;;;;;;5065431;28;20105;-75
2022/12/08 05:55:46;;;;;;;4.20;1.73;;;;;;;;;;5069082;28;20048;-75
2022/12/08 05:58:13;;;;;;;7.65;1.83;;;;;;;;;;5065168;28;20067;-75
2022/12/08 06:00:40;;;;;;;7.32;1.83;;;;;;;;;;5066222;28;20439;-74
2022/12/08 06:03:06;;;;;;;4.88;1.90;;;;;;;;;;5066684;28;20045;-75
2022/12/08 06:05:35;;;;;;;5.00;1.90;;;;;;;;;;5070236;28;20036;-75
2022/12/08 06:08:04;;;;;;;8.05;2.28;;;;;;;;;;5066205;28;20052;-75
2022/12/08 06:10:30;;;;;;;4.63;1.88;;;;;;;;;;5071367;28;20051;-75
2022/12/08 06:12:56;;;;;;;7.68;1.70;;;;;;;;;;5070099;28;20049;-75
2022/12/08 06:15:23;;;;;;;5.13;1.95;;;;;;;;;;5067322;28;20041;-75
2022/12/08 06:17:49;;;;;;;4.97;1.83;;;;;;;;;;5068367;28;20044;-74
2022/12/08 06:20:15;;;;;;;7.32;2.50;;;;;;;;;;5066714;28;20033;-75
2022/12/08 06:22:41;;;;;;;4.78;2.05;;;;;;;;;;5064557;28;20098;-75
2022/12/08 06:25:07;;;;;;;6.35;2.10;;;;;;;;;;5066639;28;20396;-75
2022/12/08 06:27:33;;;;;;;4.65;1.80;;;;;;;;;;5068865;28;20526;-75
2022/12/08 06:29:59;;;;;;;4.95;2.10;;;;;;;;;;5067389;28;20044;-75
2022/12/08 06:32:25;;;;;;;9.00;2.63;;;;;;;;;;5066926;28;21668;-75
2022/12/08 06:34:52;;;;;;;3.53;1.92;;;;;;;;;;5068407;28;20486;-75
2022/12/08 06:37:18;;;;;;;4.45;1.95;;;;;;;;;;5061096;28;20512;-75
2022/12/08 06:39:44;;;;;;;3.55;2.35;;;;;;;;;;5067940;28;20068;-75
2022/12/08 06:44:55;;;;;;;4.88;2.50;;;;;;;;;;5069086;28;20036;-75
2022/12/08 06:47:21;;;;;;;4.72;2.20;;;;;;;;;;5064434;28;20037;-75
2022/12/08 06:49:47;;;;;;;5.88;2.53;;;;;;;;;;5065221;28;20102;-75
2022/12/08 06:52:14;;;;;;;4.68;2.42;;;;;;;;;;5068773;28;20040;-75
2022/12/08 06:54:40;;;;;;;7.20;2.13;;;;;;;;;;5069402;28;20037;-74
2022/12/08 06:57:06;;;;;;;4.30;2.10;;;;;;;;;;5069434;28;20059;-75
2022/12/08 06:59:32;;;;;;;5.57;2.35;;;;;;;;;;5067958;28;20047;-75
2022/12/08 07:01:58;;;;;;;5.43;2.38;;;;;;;;;;5066108;28;20040;-75
2022/12/08 07:04:24;;;;;;;8.00;2.30;;;;;;;;;;5068565;28;20040;-75
2022/12/08 07:06:50;;;;;;;11.38;2.05;;;;;;;;;;5069287;28;20050;-74
2022/12/08 07:09:16;;;;;;;7.70;2.00;;;;;;;;;;5066855;28;20045;-75
2022/12/08 07:11:42;;;;;;;5.90;1.92;;;;;;;;;;5068688;28;20140;-75
2022/12/08 07:14:09;;;;;;;4.25;1.67;;;;;;;;;;5059719;28;20069;-75
2022/12/08 07:16:35;;;;;;;5.25;1.80;;;;;;;;;;5068932;28;20095;-74
2022/12/08 07:19:01;;;;;;;3.85;2.10;;;;;;;;;;5066324;28;20047;-74
2022/12/08 07:21:27;;;;;;;3.35;1.80;;;;;;;;;;5065715;28;20594;-75
2022/12/08 07:23:53;;;;;;;5.10;1.80;;;;;;;;;;5069645;28;20089;-74
2022/12/08 07:26:19;;;;;;;2.45;1.70;;;;;;;;;;5068430;28;20093;-74
2022/12/08 07:28:45;;;;;;;5.35;1.98;;;;;;;;;;5064587;28;20055;-75
2022/12/08 07:31:19;;;;;;;5.85;1.90;;;;;;;;;;5063899;28;20059;-75
2022/12/08 07:33:45;;;;;;;4.25;1.77;;;;;;;;;;5070469;28;20053;-74
2022/12/08 07:36:11;;;;;;;5.97;1.80;;;;;;;;;;5063496;28;20052;-75
2022/12/08 07:38:38;;;;;;;4.25;2.17;;;;;;;;;;5068445;28;20484;-75
2022/12/08 07:41:04;;;;;;;4.97;1.90;;;;;;;;;;5070917;28;20508;-75
2022/12/08 07:43:30;;;;;;;3.95;2.13;;;;;;;;;;5056485;28;20048;-75
2022/12/08 07:45:56;;;;;;;3.85;1.88;;;;;;;;;;5070079;28;20037;-75
2022/12/08 07:48:22;;;;;;;4.68;1.90;;;;;;;;;;5070182;28;20488;-75
2022/12/08 07:50:48;;;;;;;5.22;2.00;;;;;;;;;;5068827;28;20051;-75
2022/12/08 07:53:14;;;;;;;7.75;2.45;;;;;;;;;;5070796;28;20056;-75
2022/12/08 07:55:43;;;;;;;5.63;1.98;;;;;;;;;;5057822;28;20047;-74
2022/12/08 07:58:10;;;;;;;6.93;1.73;;;;;;;;;;5063158;28;20044;-75
2022/12/08 08:00:36;;;;;;;7.35;1.92;;;;;;;;;;5067227;28;20048;-76
2022/12/08 08:03:02;;;;;;;6.03;2.13;;;;;;;;;;5060005;28;20048;-76
2022/12/08 08:05:28;;;;;;;3.10;1.60;;;;;;;;;;5056755;28;20533;-76
2022/12/08 08:07:54;;;;;;;6.78;1.75;;;;;;;;;;5063182;28;20094;-76
2022/12/08 08:10:20;;;;;;;6.32;2.13;;;;;;;;;;5071764;28;20044;-75
2022/12/08 08:12:46;;;;;;;6.32;1.90;;;;;;;;;;5070603;28;20051;-75
2022/12/08 08:15:12;;;;;;;2.90;1.63;;;;;;;;;;5070593;28;20431;-76
2022/12/08 08:17:38;;;;;;;2.88;1.63;;;;;;;;;;5067229;28;20492;-75
2022/12/08 08:20:06;;;;;;;7.55;1.92;;;;;;;;;;5069138;28;20094;-75
2022/12/08 08:22:32;;;;;;;2.65;1.50;;;;;;;;;;5066664;28;20040;-75
2022/12/08 08:24:58;;;;;;;5.63;1.80;;;;;;;;;;5052597;28;20045;-75
2022/12/08 08:27:25;;;;;;;4.65;2.10;;;;;;;;;;5056884;28;20067;-75
2022/12/08 08:29:51;;;;;;;5.72;1.80;;;;;;;;;;5061858;28;20106;-76
2022/12/08 08:32:17;;;;;;;8.13;1.85;;;;;;;;;;5057702;28;20052;-75
2022/12/08 08:34:46;;;;;;;6.65;2.70;;;;;;;;;;5068944;28;20068;-75
2022/12/08 08:37:12;;;;;;;2.38;1.60;;;;;;;;;;5064788;28;20056;-76
2022/12/08 08:39:38;;;;;;;9.75;2.03;;;;;;;;;;5060897;28;20036;-75
2022/12/08 08:42:04;;;;;;;5.38;1.98;;;;;;;;;;5063948;28;20044;-75
2022/12/08 08:44:30;;;;;;;3.60;2.00;;;;;;;;;;5064609;28;20048;-77
2022/12/08 08:46:56;;;;;;;3.88;2.05;;;;;;;;;;5069412;28;20046;-75
2022/12/08 08:49:22;;;;;;;14.93;2.42;;;;;;;;;;5064086;28;20046;-76
2022/12/08 08:51:48;;;;;;;8.25;1.98;;;;;;;;;;5057541;28;20056;-75
2022/12/08 08:54:14;;;;;;;4.30;1.83;;;;;;;;;;5064992;28;20040;-75
2022/12/08 08:56:41;;;;;;;8.10;2.10;;;;;;;;;;5071885;28;20058;-75
2022/12/08 08:59:07;;;;;;;6.60;2.38;;;;;;;;;;5073652;28;20109;-75
2022/12/08 09:01:33;;;;;;;6.05;1.83;;;;;;;;;;5060222;28;20388;-75
2022/12/08 09:04:00;;;;;;;4.13;1.90;;;;;;;;;;5066675;28;20045;-75
2022/12/08 09:06:29;;;;;;;5.88;2.00;;;;;;;;;;5062027;28;20062;-74
2022/12/08 09:08:55;;;;;;;5.55;1.90;;;;;;;;;;5063888;28;20049;-75
2022/12/08 09:11:22;;;;;;;5.72;2.28;;;;;;;;;;5071925;28;20128;-75
2022/12/08 09:13:48;;;;;;;4.45;2.00;;;;;;;;;;5057372;28;20037;-75
2022/12/08 09:16:15;;;;;;;4.30;1.85;;;;;;;;;;5059070;28;20056;-75
2022/12/08 09:18:41;;;;;;;6.72;2.35;;;;;;;;;;5066088;28;20756;-75
2022/12/08 09:21:08;;;;;;;2.75;1.73;;;;;;;;;;5062763;28;20040;-75
2022/12/08 09:23:34;;;;;;;6.70;2.22;;;;;;;;;;5062288;28;20056;-75
2022/12/08 09:26:00;;;;;;;4.65;1.90;;;;;;;;;;5064109;28;20535;-75
2022/12/08 09:28:26;;;;;;;3.13;1.98;;;;;;;;;;5055025;28;20052;-75
2022/12/08 09:30:52;;;;;;;2.33;1.42;;;;;;;;;;5064714;28;20040;-75
2022/12/08 09:33:18;;;;;;;3.20;1.45;;;;;;;;;;5065562;28;20063;-75
2022/12/08 09:35:44;;;;;;;4.07;1.50;;;;;;;;;;5068112;28;20067;-75
2022/12/08 09:38:10;;;;;;;2.40;1.40;;;;;;;;;;5065809;28;20385;-75
2022/12/08 09:40:39;;;;;;;4.22;1.80;;;;;;;;;;5064865;28;20047;-75
2022/12/08 09:43:05;;;;;;;3.53;1.88;;;;;;;;;;5070732;28;20041;-75
2022/12/08 09:45:33;;;;;;;3.60;1.70;;;;;;;;;;5067299;28;20746;-75
2022/12/08 09:48:09;;;;;;;3.08;1.60;;;;;;;;;;5068040;28;20048;-76
2022/12/08 09:50:35;;;;;;;3.08;1.60;;;;;;;;;;5061676;28;20420;-75
2022/12/08 09:53:20;;;;;;;3.65;1.55;;;;;;;;;;5072215;28;20545;-75
2022/12/08 09:55:49;;;;;;;4.15;2.13;;;;;;;;;;5071560;28;20047;-75
2022/12/08 09:58:21;;;;;;;4.95;1.80;;;;;;;;;;5070260;28;20479;-75
2022/12/08 10:00:47;;;;;;;5.38;1.90;;;;;;;;;;5064320;28;20063;-75
2022/12/08 10:03:13;;;;;;;3.15;1.90;;;;;;;;;;5073162;28;20101;-75
2022/12/08 10:05:43;;;;;;;4.35;1.80;;;;;;;;;;5070746;28;20044;-75
2022/12/08 10:08:15;;;;;;;3.33;1.55;;;;;;;;;;5068997;28;20056;-75
2022/12/08 10:10:46;;;;;;;3.88;1.70;;;;;;;;;;5066814;28;20037;-75
2022/12/08 10:13:25;;;;;;;2.00;1.52;;;;;;;;;;5071754;28;20062;-75
2022/12/08 10:15:58;;;;;;;1.85;1.58;;;;;;;;;;5065196;28;20404;-75
2022/12/08 10:18:29;;;;;;;3.03;1.50;;;;;;;;;;5072762;28;20075;-75
2022/12/08 10:20:57;;;;;;;2.58;1.40;;;;;;;;;;5071823;28;20526;-75
2022/12/08 10:23:23;;;;;;;1.60;1.48;;;;;;;;;;5072054;28;20056;-75
2022/12/08 10:26:19;;;;;;;3.90;1.70;;;;;;;;;;5067353;28;20036;-75
2022/12/08 10:28:45;;;;;;;2.90;2.20;;;;;;;;;;5043292;28;20061;-75
2022/12/08 10:31:19;;;;;;;3.08;2.03;;;;;;;;;;5068594;28;20053;-75
2022/12/08 10:33:46;;;;;;;3.53;1.90;;;;;;;;;;5072317;28;20053;-75
2022/12/08 10:36:12;;;;;;;2.72;1.77;;;;;;;;;;5071757;28;20052;-75
2022/12/08 10:38:39;;;;;;;4.05;1.73;;;;;;;;;;5065395;28;20536;-75
2022/12/08 10:41:08;;;;;;;4.10;1.65;;;;;;;;;;5070323;28;20072;-75
2022/12/08 10:43:37;;;;;;;1.83;1.60;;;;;;;;;;5074142;28;20045;-75
2022/12/08 10:46:10;;;;;;;3.10;1.45;;;;;;;;;;5068493;28;20044;-75
2022/12/08 10:48:36;;;;;;;1.40;1.30;;;;;;;;;;5068994;28;20052;-75
2022/12/08 10:51:21;;;;;;;1.50;1.40;;;;;;;;;;5070684;28;20075;-75
2022/12/08 10:53:47;;;;;;;2.88;1.63;;;;;;;;;;5052386;28;20076;-75
2022/12/08 10:56:16;;;;;;;3.53;1.70;;;;;;;;;;5066681;28;20073;-75
2022/12/08 10:58:44;;;;;;;1.83;1.40;;;;;;;;;;5083984;28;20052;-75
2022/12/08 11:01:12;;;;;;;2.85;1.60;;;;;;;;;;5067547;28;20055;-75
2022/12/08 11:03:51;;;;;;;2.30;1.70;;;;;;;;;;5059331;28;20378;-75
2022/12/08 11:06:17;;;;;;;2.42;1.50;;;;;;;;;;5063142;28;20048;-75
2022/12/08 11:08:46;;;;;;;2.85;1.60;;;;;;;;;;5068622;28;20055;-75
2022/12/08 11:11:12;;;;;;;6.97;2.22;;;;;;;;;;5065549;28;20048;-76
2022/12/08 11:13:40;;;;;;;2.78;1.83;;;;;;;;;;5064818;28;20036;-76
2022/12/08 11:16:07;;;;;;;2.20;1.60;;;;;;;;;;5063604;28;20044;-76
2022/12/08 11:18:41;;;;;;;2.08;1.30;;;;;;;;;;5069160;28;20131;-76
2022/12/08 11:21:10;;;;;;;5.90;1.50;;;;;;;;;;5069285;28;20092;-76
2022/12/08 11:23:36;;;;;;;2.88;1.65;;;;;;;;;;5069985;28;20094;-76
2022/12/08 11:26:05;;;;;;;3.63;1.75;;;;;;;;;;5064245;28;20045;-76
2022/12/08 11:28:31;;;;;;;2.75;1.83;;;;;;;;;;5068669;28;20044;-77
2022/12/08 11:31:02;;;;;;;4.13;2.28;;;;;;;;;;5067267;28;20040;-77
2022/12/08 11:33:28;;;;;;;4.00;1.50;;;;;;;;;;5064470;28;20053;-77
2022/12/08 11:36:03;;;;;;;2.45;1.75;;;;;;;;;;5071101;28;21999;-76
2022/12/08 11:38:29;;;;;;;2.45;1.95;;;;;;;;;;5069028;28;20052;-76
2022/12/08 11:40:58;;;;;;;3.83;2.75;;;;;;;;;;5070586;28;20404;-77
2022/12/08 11:43:26;;;;;;;3.80;2.95;;;;;;;;;;5068172;28;20094;-77
2022/12/08 11:45:58;;;;;;;2.83;1.55;;;;;;;;;;5064424;28;20041;-76
2022/12/08 11:48:36;;;;;;;2.50;1.40;;;;;;;;;;5068639;28;20546;-76
2022/12/08 11:51:32;;;;;;;2.03;1.92;;;;;;;;;;5067334;28;20045;-76
2022/12/08 11:54:09;;;;;;;2.10;1.65;;;;;;;;;;5059278;28;20057;-76
2022/12/08 11:56:35;;;;;;;3.65;2.15;;;;;;;;;;5056883;28;20060;-76
2022/12/08 11:59:05;;;;;;;4.85;2.83;;;;;;;;;;5067876;28;20040;-76
2022/12/08 12:01:31;;;;;;;4.28;1.70;;;;;;;;;;5067604;28;20566;-77
2022/12/08 12:03:57;;;;;;;4.03;1.92;;;;;;;;;;5061951;28;20036;-76
2022/12/08 12:06:26;;;;;;;2.25;1.73;;;;;;;;;;5071665;28;20048;-76
2022/12/08 12:09:04;;;;;;;2.15;1.90;;;;;;;;;;5067024;28;20563;-75
2022/12/08 12:14:30;;;;;;;3.35;1.30;;;;;;;;;;5068675;28;20052;-75
2022/12/08 12:17:00;;;;;;;1.90;1.40;;;;;;;;;;5056909;28;20058;-75
2022/12/08 12:19:27;;;;;;;2.35;1.80;;;;;;;;;;5067382;28;20043;-75
2022/12/08 12:21:55;;;;;;;2.35;1.60;;;;;;;;;;5063505;28;20058;-75
2022/12/08 12:24:26;;;;;;;4.03;1.70;;;;;;;;;;5068051;28;20051;-75
2022/12/08 12:26:58;;;;;;;2.30;1.50;;;;;;;;;;5070762;28;20044;-75
2022/12/08 12:29:26;;;;;;;2.50;1.60;;;;;;;;;;5067705;28;20048;-75
2022/12/08 12:31:58;;;;;;;3.50;1.80;;;;;;;;;;5061510;28;20050;-75
2022/12/08 12:34:26;;;;;;;1.63;1.40;;;;;;;;;;5068655;28;20079;-75
2022/12/08 12:36:52;;;;;;;2.88;1.50;;;;;;;;;;5071258;28;20052;-75
2022/12/08 12:39:21;;;;;;;2.50;1.40;;;;;;;;;;5073847;28;20098;-75
2022/12/08 12:41:49;;;;;;;2.85;1.60;;;;;;;;;;5069898;28;20075;-75
2022/12/08 12:44:21;;;;;;;2.20;1.85;;;;;;;;;;5069443;28;20037;-75
2022/12/08 12:46:47;;;;;;;2.88;1.70;;;;;;;;;;5069539;28;20567;-75
2022/12/08 12:49:48;;;;;;;6.75;1.98;;;;;;;;;;5067914;28;20455;-74
2022/12/08 12:52:17;;;;;;;2.00;1.90;;;;;;;;;;5064434;28;20040;-74
2022/12/08 12:54:49;;;;;;;2.70;1.92;;;;;;;;;;5065632;28;20040;-75
2022/12/08 12:57:18;;;;;;;3.97;1.80;;;;;;;;;;5066241;28;20056;-75
2022/12/08 12:59:44;;;;;;;3.85;1.70;;;;;;;;;;5069164;28;20059;-75
2022/12/08 13:02:28;;;;;;;3.97;2.15;;;;;;;;;;5067579;28;20045;-75
2022/12/08 13:04:56;;;;;;;2.13;1.85;;;;;;;;;;5068938;28;20041;-75
2022/12/08 13:07:25;;;;;;;1.98;1.80;;;;;;;;;;5068393;28;20049;-75
2022/12/08 13:10:02;;;;;;;1.60;1.50;;;;;;;;;;5064272;28;20036;-75
2022/12/08 13:12:28;;;;;;;3.80;1.50;;;;;;;;;;5064902;28;20473;-75
2022/12/08 13:15:00;;;;;;;2.20;2.00;;;;;;;;;;5065259;28;20120;-75
2022/12/08 13:17:33;;;;;;;3.33;1.90;;;;;;;;;;5068801;28;20492;-75
2022/12/08 13:20:01;;;;;;;3.55;1.55;;;;;;;;;;5067391;28;20052;-75
2022/12/08 13:22:47;;;;;;;3.65;1.58;;;;;;;;;;5068110;28;20105;-75
2022/12/08 13:25:32;;;;;;;2.67;1.70;;;;;;;;;;5065505;28;20044;-75
2022/12/08 13:28:08;;;;;;;2.65;1.70;;;;;;;;;;5051183;28;20167;-75
2022/12/08 13:30:50;;;;;;;4.80;1.90;;;;;;;;;;5069136;28;20045;-75
2022/12/08 13:33:18;;;;;;;1.95;1.70;;;;;;;;;;5054605;28;20556;-75
2022/12/08 13:35:47;;;;;;;3.10;1.90;;;;;;;;;;5068442;28;20416;-75
2022/12/08 13:38:16;;;;;;;5.93;2.08;;;;;;;;;;5066198;28;20131;-75
2022/12/08 13:40:43;;;;;;;4.60;2.13;;;;;;;;;;5063868;28;20037;-75
2022/12/08 13:43:17;;;;;;;5.70;2.95;;;;;;;;;;5059975;28;20055;-75
2022/12/08 13:45:44;;;;;;;7.47;2.70;;;;;;;;;;5071455;28;20051;-75
2022/12/08 13:48:25;;;;;;;2.45;2.00;;;;;;;;;;5068886;28;20082;-75
2022/12/08 13:50:56;;;;;;;2.63;1.90;;;;;;;;;;5069498;28;20051;-75
2022/12/08 13:53:27;;;;;;;2.70;1.92;;;;;;;;;;5065899;28;20055;-75
2022/12/08 13:55:58;;;;;;;3.63;1.92;;;;;;;;;;5065851;28;20761;-75
2022/12/08 13:58:35;;;;;;;2.20;2.00;;;;;;;;;;5069770;28;20051;-75
2022/12/08 14:01:10;;;;;;;3.25;2.03;;;;;;;;;;5059749;28;20185;-75
2022/12/08 14:03:48;;;;;;;1.98;1.88;;;;;;;;;;5067980;28;20055;-75
2022/12/08 14:06:16;;;;;;;3.83;1.95;;;;;;;;;;5064259;28;20041;-75
2022/12/08 14:08:43;;;;;;;2.00;1.70;;;;;;;;;;5069051;28;20068;-75
2022/12/08 14:11:32;;;;;;;2.28;1.70;;;;;;;;;;5055421;28;20102;-75
2022/12/08 14:13:58;;;;;;;2.70;2.30;;;;;;;;;;5058985;28;20062;-75
2022/12/08 14:16:47;;;;;;;4.30;2.75;;;;;;;;;;5052466;28;20511;-75
2022/12/08 14:19:18;;;;;;;4.90;3.72;;;;;;;;;;5051751;28;20507;-75
2022/12/08 14:21:50;;;;;;;6.60;4.20;;;;;;;;;;5049945;28;20056;-75
2022/12/08 14:24:16;;;;;;;6.68;4.00;;;;;;;;;;5059063;28;20048;-75
2022/12/08 14:26:46;;;;;;;7.35;4.10;;;;;;;;;;5072618;28;20044;-75
2022/12/08 14:29:20;;;;;;;9.30;4.63;;;;;;;;;;5073278;28;20119;-75
2022/12/08 14:31:46;;;;;;;11.02;6.40;;;;;;;;;;5069441;28;20110;-75
2022/12/08 14:34:18;;;;;;;11.75;8.02;;;;;;;;;;5061846;28;20499;-75
2022/12/08 14:36:44;;;;;;;14.88;9.32;;;;;;;;;;5072775;28;20045;-75
2022/12/08 14:39:10;;;;;;;11.35;7.10;;;;;;;;;;5071364;28;20044;-75
2022/12/08 14:41:38;;;;;;;11.32;6.90;;;;;;;;;;5065660;28;20036;-75
2022/12/08 14:44:13;;;;;;;10.23;6.13;;;;;;;;;;5070305;28;20056;-75
2022/12/08 14:46:59;;;;;;;11.27;6.63;;;;;;;;;;5070233;28;20036;-75
2022/12/08 14:49:36;;;;;;;7.50;4.40;;;;;;;;;;5072720;28;20075;-75
2022/12/08 14:52:02;;;;;;;6.72;3.70;;;;;;;;;;5063107;28;20480;-75
2022/12/08 14:54:30;;;;;;;5.32;3.13;;;;;;;;;;5072569;28;20040;-75
2022/12/08 14:56:56;;;;;;;4.47;3.15;;;;;;;;;;5069533;28;20417;-75
2022/12/08 14:59:32;;;;;;;6.93;3.28;;;;;;;;;;5073652;28;20040;-75
2022/12/08 15:02:23;;;;;;;6.78;3.63;;;;;;;;;;5070101;28;20400;-75
2022/12/08 15:04:53;;;;;;;7.03;3.83;;;;;;;;;;5067505;28;20174;-75